createdAt,value
2022-08-09T00:01:10.371Z,59.08
2022-08-09T00:04:25.026Z,59.28
2022-08-09T00:07:44.408Z,59.71
2022-08-09T00:10:53.846Z,59.69
2022-08-09T00:14:05.390Z,59.44
2022-08-09T00:18:04.710Z,59.54
2022-08-09T00:20:49.993Z,59.56
2022-08-09T00:23:59.924Z,60.12
2022-08-09T00:27:11.111Z,60.31
2022-08-09T00:30:25.347Z,60.25
2022-08-09T00:33:48.947Z,60.54
2022-08-09T00:36:57.588Z,60.53
2022-08-09T00:40:13.518Z,60.53
2022-08-09T00:44:15.861Z,60.60
2022-08-09T00:46:57.818Z,60.84
2022-08-09T00:50:14.286Z,60.71
2022-08-09T00:53:23.994Z,61.02
2022-08-09T00:56:30.928Z,61.00
2022-08-09T00:59:46.557Z,61.21
2022-08-09T01:02:55.332Z,61.16
2022-08-09T01:06:17.786Z,61.24
2022-08-09T01:09:36.755Z,61.74
2022-08-09T01:12:48.778Z,61.69
2022-08-09T01:16:01.156Z,61.77
2022-08-09T01:19:40.164Z,62.10
2022-08-09T01:24:00.933Z,62.21
2022-08-09T01:26:59.453Z,62.05
2022-08-09T01:30:08.987Z,62.43
2022-08-09T01:33:41.626Z,62.01
2022-08-09T01:36:49.598Z,62.20
2022-08-09T01:40:01.259Z,62.44
2022-08-09T01:43:14.174Z,62.54
2022-08-09T01:46:24.625Z,62.82
2022-08-09T01:49:39.148Z,62.81
2022-08-09T01:52:48.298Z,62.90
2022-08-09T01:55:58.984Z,63.08
2022-08-09T01:59:16.111Z,63.38
2022-08-09T02:02:31.331Z,63.17
2022-08-09T02:06:06.579Z,63.06
2022-08-09T02:09:10.577Z,63.47
2022-08-09T02:12:21.690Z,64.21
2022-08-09T02:15:48.959Z,63.89
2022-08-09T02:18:56.781Z,63.97
2022-08-09T02:22:19.154Z,64.15
2022-08-09T02:25:42.680Z,63.41
2022-08-09T02:29:00.737Z,64.07
2022-08-09T02:32:15.719Z,63.70
2022-08-09T02:36:01.342Z,63.75
2022-08-09T02:38:56.219Z,63.64
2022-08-09T02:42:06.721Z,63.83
2022-08-09T02:45:18.420Z,64.16
2022-08-09T02:48:31.061Z,64.03
2022-08-09T02:51:40.848Z,64.38
2022-08-09T02:54:54.339Z,64.42
2022-08-09T02:58:36.305Z,64.19
2022-08-09T03:01:42.663Z,64.54
2022-08-09T03:04:52.357Z,64.63
2022-08-09T03:07:59.632Z,64.49
2022-08-09T03:11:07.270Z,64.75
2022-08-09T03:14:18.268Z,64.28
2022-08-09T03:17:27.411Z,64.39
2022-08-09T03:20:37.268Z,64.69
2022-08-09T03:23:44.579Z,64.74
2022-08-09T03:27:13.055Z,65.17
2022-08-09T03:30:29.597Z,65.31
2022-08-09T03:33:54.707Z,65.31
2022-08-09T03:37:10.696Z,65.01
2022-08-09T03:40:33.610Z,65.16
2022-08-09T03:43:39.971Z,65.43
2022-08-09T03:46:49.237Z,65.48
2022-08-09T03:49:58.479Z,65.35
2022-08-09T03:53:10.737Z,65.43
2022-08-09T03:56:16.934Z,65.44
2022-08-09T03:59:42.824Z,65.59
2022-08-09T04:02:52.744Z,65.38
2022-08-09T04:06:01.007Z,65.50
2022-08-09T04:09:48.233Z,65.56
2022-08-09T04:12:49.956Z,65.44
2022-08-09T04:16:19.491Z,64.89
2022-08-09T04:19:42.809Z,64.88
2022-08-09T04:22:50.458Z,64.96
2022-08-09T04:26:00.183Z,64.64
2022-08-09T04:29:12.108Z,64.64
2022-08-09T04:32:31.287Z,64.61
2022-08-09T04:35:40.316Z,64.39
2022-08-09T04:38:49.162Z,64.37
2022-08-09T04:41:57.926Z,64.92
2022-08-09T04:45:10.742Z,65.29
2022-08-09T04:48:16.742Z,65.43
2022-08-09T04:51:24.803Z,65.61
2022-08-09T04:54:35.221Z,65.40
2022-08-09T04:57:58.923Z,65.25
2022-08-09T05:01:16.346Z,65.41
2022-08-09T05:04:31.178Z,65.31
2022-08-09T05:07:37.645Z,64.56
2022-08-09T05:10:50.009Z,64.67
2022-08-09T05:14:11.397Z,64.75
2022-08-09T05:18:38.798Z,65.24
2022-08-09T05:20:47.294Z,64.47
2022-08-09T05:24:01.394Z,64.05
2022-08-09T05:27:08.241Z,63.99
2022-08-09T05:30:23.057Z,64.39
2022-08-09T05:33:32.806Z,64.44
2022-08-09T05:36:40.144Z,64.34
2022-08-09T05:39:48.488Z,64.01
2022-08-09T05:42:56.967Z,63.73
2022-08-09T05:46:06.393Z,63.47
2022-08-09T05:49:13.777Z,63.38
2022-08-09T05:52:39.791Z,63.13
2022-08-09T05:55:53.064Z,63.08
2022-08-09T05:59:00.879Z,62.91
2022-08-09T06:02:11.201Z,62.32
2022-08-09T06:05:30.706Z,62.41
2022-08-09T06:08:52.584Z,62.62
2022-08-09T06:12:08.022Z,62.30
2022-08-09T06:15:15.281Z,61.33
2022-08-09T06:18:25.622Z,60.53
2022-08-09T06:21:32.797Z,60.21
2022-08-09T06:24:38.704Z,60.15
2022-08-09T06:27:51.326Z,59.75
2022-08-09T06:30:57.933Z,59.59
2022-08-09T06:34:09.454Z,59.00
2022-08-09T06:37:15.449Z,58.66
2022-08-09T06:40:24.412Z,58.61
2022-08-09T06:43:34.308Z,58.29
2022-08-09T06:46:41.484Z,57.10
2022-08-09T06:50:14.818Z,56.94
2022-08-09T06:53:17.254Z,57.10
2022-08-09T06:56:23.657Z,56.49
2022-08-09T07:00:55.469Z,56.30
2022-08-09T07:03:06.414Z,55.69
2022-08-09T07:06:16.276Z,54.69
2022-08-09T07:09:56.122Z,54.55
2022-08-09T07:12:57.662Z,54.70
2022-08-09T07:16:41.951Z,54.83
2022-08-09T07:19:32.063Z,54.50
2022-08-09T07:22:49.564Z,54.01
2022-08-09T07:26:02.639Z,53.18
2022-08-09T07:29:13.203Z,53.16
2022-08-09T07:32:20.560Z,52.36
2022-08-09T07:35:28.892Z,51.90
2022-08-09T07:38:56.846Z,51.43
2022-08-09T07:42:07.919Z,51.36
2022-08-09T07:45:23.701Z,51.17
2022-08-09T07:48:40.794Z,50.90
2022-08-09T07:52:05.447Z,49.18
2022-08-09T07:55:16.794Z,49.07
2022-08-09T07:58:26.980Z,47.55
2022-08-09T08:01:34.151Z,48.15
2022-08-09T08:04:41.999Z,48.42
2022-08-09T08:08:43.327Z,47.63
2022-08-09T08:12:09.662Z,47.27
2022-08-09T08:14:50.918Z,48.48
2022-08-09T08:17:58.845Z,46.42
2022-08-09T08:21:06.485Z,46.56
2022-08-09T08:24:16.847Z,46.73
2022-08-09T08:27:26.948Z,45.76
2022-08-09T08:30:48.667Z,45.67
2022-08-09T08:33:56.636Z,46.40
2022-08-09T08:37:08.174Z,45.33
2022-08-09T08:40:22.104Z,44.74
2022-08-09T08:43:36.118Z,44.86
2022-08-09T08:47:02.496Z,45.57
2022-08-09T08:50:12.790Z,45.78
2022-08-09T08:53:22.432Z,44.90
2022-08-09T08:56:29.736Z,44.79
2022-08-09T08:59:46.880Z,45.22
2022-08-09T09:02:55.818Z,45.75
2022-08-09T09:06:05.075Z,45.87
2022-08-09T09:09:21.144Z,44.55
2022-08-09T09:12:40.912Z,44.94
2022-08-09T09:15:50.908Z,44.68
2022-08-09T09:22:28.855Z,43.71
2022-08-09T09:26:02.306Z,44.15
2022-08-09T09:29:11.390Z,42.73
2022-08-09T09:32:35.071Z,43.43
2022-08-09T09:36:02.488Z,43.02
2022-08-09T09:39:12.557Z,43.83
2022-08-09T09:42:28.019Z,43.31
2022-08-09T09:45:57.489Z,42.64
2022-08-09T09:49:50.271Z,42.08
2022-08-09T09:52:56.187Z,42.62
2022-08-09T09:56:06.552Z,42.72
2022-08-09T09:59:38.249Z,43.62
2022-08-09T10:02:49.419Z,42.75
2022-08-09T10:06:05.243Z,43.63
2022-08-09T10:09:23.327Z,42.62
2022-08-09T10:12:32.735Z,43.31
2022-08-09T10:16:55.811Z,43.22
2022-08-09T10:19:20.185Z,43.54
2022-08-09T10:22:41.868Z,43.10
2022-08-09T10:26:06.586Z,42.99
2022-08-09T10:29:36.075Z,42.75
2022-08-09T10:32:45.081Z,43.00
2022-08-09T10:35:57.502Z,43.47
2022-08-09T10:39:21.613Z,42.93
2022-08-09T10:42:34.616Z,43.41
2022-08-09T10:45:58.495Z,42.20
2022-08-09T10:49:16.594Z,42.73
2022-08-09T10:52:47.631Z,43.25
2022-08-09T10:56:22.762Z,42.46
2022-08-09T10:59:55.723Z,42.99
2022-08-09T11:03:18.328Z,42.64
2022-08-09T11:06:27.788Z,42.70
2022-08-09T11:09:59.682Z,43.11
2022-08-09T11:13:50.133Z,42.03
2022-08-09T11:16:48.777Z,41.54
2022-08-09T11:20:10.174Z,41.40
2022-08-09T11:23:23.872Z,42.13
2022-08-09T11:26:47.332Z,41.53
2022-08-09T11:30:32.901Z,42.07
2022-08-09T11:33:42.164Z,41.71
2022-08-09T11:36:51.398Z,41.28
2022-08-09T11:40:09.552Z,40.98
2022-08-09T11:43:20.212Z,41.33
2022-08-09T11:46:33.608Z,41.34
2022-08-09T11:50:53.083Z,41.08
2022-08-09T11:54:01.528Z,40.77
2022-08-09T11:56:58.285Z,40.63
2022-08-09T12:00:13.064Z,40.37
2022-08-09T12:03:55.590Z,40.25
2022-08-09T12:06:56.456Z,39.75
2022-08-09T12:10:06.315Z,39.90
2022-08-09T12:14:07.133Z,40.41
2022-08-09T12:17:28.142Z,40.43
2022-08-09T12:20:35.152Z,40.19
2022-08-09T12:23:56.347Z,40.95
2022-08-09T12:29:11.407Z,40.54
2022-08-09T12:30:50.069Z,41.08
2022-08-09T12:34:01.282Z,40.52
2022-08-09T12:37:24.173Z,40.58
2022-08-09T12:40:35.425Z,40.48
2022-08-09T12:44:06.068Z,40.44
2022-08-09T12:47:10.934Z,39.54
2022-08-09T12:50:23.767Z,40.17
2022-08-09T12:53:38.608Z,40.39
2022-08-09T12:56:54.471Z,40.65
2022-08-09T13:00:17.120Z,40.22
2022-08-09T13:03:53.805Z,41.08
2022-08-09T13:06:57.091Z,40.84
2022-08-09T13:10:08.606Z,40.94
2022-08-09T13:13:17.599Z,40.78
2022-08-09T13:16:24.636Z,39.38
2022-08-09T13:20:07.135Z,39.76
2022-08-09T13:24:01.822Z,39.99
2022-08-09T13:26:50.018Z,39.65
2022-08-09T13:30:04.241Z,39.95
2022-08-09T13:33:53.086Z,39.81
2022-08-09T13:36:55.560Z,39.82
2022-08-09T13:41:51.143Z,40.54
2022-08-09T13:43:38.781Z,39.81
2022-08-09T13:47:25.273Z,39.66
2022-08-09T13:50:30.112Z,39.79
2022-08-09T13:53:43.129Z,39.67
2022-08-09T13:56:51.822Z,40.09
2022-08-09T14:00:03.419Z,39.67
2022-08-09T14:04:01.553Z,40.04
2022-08-09T14:06:46.369Z,40.03
2022-08-09T14:09:54.533Z,40.06
2022-08-09T14:13:03.269Z,40.38
2022-08-09T14:16:16.199Z,40.66
2022-08-09T14:19:22.746Z,39.30
2022-08-09T14:22:31.681Z,40.43
2022-08-09T14:25:42.833Z,40.10
2022-08-09T14:28:50.998Z,39.15
2022-08-09T14:32:04.575Z,40.00
2022-08-09T14:35:18.096Z,40.22
2022-08-09T14:38:24.032Z,40.02
2022-08-09T14:41:39.552Z,40.55
2022-08-09T14:44:59.412Z,40.73
2022-08-09T14:48:11.927Z,40.93
2022-08-09T14:51:21.259Z,41.43
2022-08-09T14:54:32.313Z,41.12
2022-08-09T14:57:43.178Z,41.28
2022-08-09T15:00:52.090Z,41.22
2022-08-09T15:04:00.860Z,41.87
2022-08-09T15:07:10.218Z,42.37
2022-08-09T15:10:16.947Z,42.00
2022-08-09T15:13:24.061Z,41.65
2022-08-09T15:16:30.602Z,41.16
2022-08-09T15:19:59.672Z,41.40
2022-08-09T15:24:01.275Z,41.10
2022-08-09T15:26:36.352Z,41.87
2022-08-09T15:30:56.076Z,41.84
2022-08-09T15:33:23.423Z,41.60
2022-08-09T15:36:48.085Z,40.61
2022-08-09T15:39:55.584Z,40.63
2022-08-09T15:43:03.370Z,39.54
2022-08-09T15:46:32.271Z,39.25
2022-08-09T15:49:36.405Z,38.63
2022-08-09T15:52:55.010Z,38.53
2022-08-09T15:56:23.423Z,37.78
2022-08-09T15:59:37.006Z,38.12
2022-08-09T16:02:53.809Z,37.93
2022-08-09T16:06:01.279Z,38.19
2022-08-09T16:09:12.504Z,37.74
2022-08-09T16:12:20.314Z,38.52
2022-08-09T16:16:10.621Z,39.37
2022-08-09T16:18:53.726Z,40.11
2022-08-09T16:21:59.809Z,39.95
2022-08-09T16:25:14.469Z,38.87
2022-08-09T16:28:25.864Z,37.88
2022-08-09T16:32:10.395Z,38.47
2022-08-09T16:34:59.481Z,37.72
2022-08-09T16:38:09.571Z,37.44
2022-08-09T16:41:23.299Z,37.16
2022-08-09T16:44:45.534Z,37.32
2022-08-09T16:48:41.445Z,37.21
2022-08-09T16:51:23.288Z,36.79
2022-08-09T16:54:34.373Z,36.73
2022-08-09T16:58:10.401Z,36.53
2022-08-09T17:01:12.534Z,37.56
2022-08-09T17:04:25.552Z,38.26
2022-08-09T17:08:46.437Z,39.08
2022-08-09T17:10:59.633Z,40.16
2022-08-09T17:14:25.624Z,40.19
2022-08-09T17:17:50.626Z,41.21
2022-08-09T17:20:57.687Z,41.35
2022-08-09T17:24:20.720Z,41.36
2022-08-09T17:27:32.967Z,41.54
2022-08-09T17:30:47.569Z,42.00
2022-08-09T17:33:54.341Z,42.54
2022-08-09T17:37:02.369Z,42.78
2022-08-09T17:40:18.108Z,42.65
2022-08-09T17:43:33.636Z,42.95
2022-08-09T17:46:55.277Z,43.30
2022-08-09T17:50:14.106Z,43.52
2022-08-09T17:53:23.728Z,43.74
2022-08-09T17:56:35.910Z,44.11
2022-08-09T17:59:42.249Z,44.50
2022-08-09T18:02:58.625Z,44.53
2022-08-09T18:06:06.304Z,44.71
2022-08-09T18:09:22.035Z,44.84
2022-08-09T18:12:40.236Z,45.28
2022-08-09T18:16:04.958Z,45.48
2022-08-09T18:20:54.655Z,45.76
2022-08-09T18:22:51.232Z,45.96
2022-08-09T18:25:57.972Z,46.33
2022-08-09T18:30:41.747Z,46.62
2022-08-09T18:32:33.354Z,46.53
2022-08-09T18:35:58.230Z,46.54
2022-08-09T18:39:11.162Z,46.67
2022-08-09T18:42:29.287Z,46.89
2022-08-09T18:46:51.210Z,47.11
2022-08-09T18:49:03.719Z,47.18
2022-08-09T18:52:14.065Z,47.00
2022-08-09T18:55:29.158Z,47.30
2022-08-09T18:58:47.377Z,47.54
2022-08-09T19:02:03.315Z,47.69
2022-08-09T19:05:20.537Z,47.93
2022-08-09T19:08:38.933Z,47.97
2022-08-09T19:11:45.831Z,48.25
2022-08-09T19:14:54.309Z,48.50
2022-08-09T19:18:00.948Z,48.83
2022-08-09T19:21:10.809Z,49.28
2022-08-09T19:24:37.975Z,48.98
2022-08-09T19:27:47.751Z,49.18
2022-08-09T19:30:58.994Z,49.49
2022-08-09T19:34:09.875Z,49.74
2022-08-09T19:37:28.902Z,49.94
2022-08-09T19:40:51.388Z,50.13
2022-08-09T19:44:01.046Z,50.38
2022-08-09T19:47:11.236Z,50.70
2022-08-09T19:50:51.050Z,51.00
2022-08-09T19:53:45.597Z,51.41
2022-08-09T19:56:57.341Z,51.71
2022-08-09T20:00:07.483Z,51.49
2022-08-09T20:04:12.612Z,51.47
2022-08-09T20:06:45.633Z,51.59
2022-08-09T20:09:52.118Z,51.98
2022-08-09T20:13:03.569Z,52.22
2022-08-09T20:16:37.175Z,52.44
2022-08-09T20:19:47.853Z,52.75
2022-08-09T20:23:00.603Z,52.71
2022-08-09T20:26:13.320Z,53.23
2022-08-09T20:29:24.886Z,53.47
2022-08-09T20:32:45.642Z,53.48
2022-08-09T20:35:54.600Z,53.39
2022-08-09T20:40:13.401Z,53.28
2022-08-09T20:42:29.350Z,53.55
2022-08-09T20:46:00.357Z,54.00
2022-08-09T20:49:10.297Z,54.03
2022-08-09T20:52:20.644Z,54.01
2022-08-09T20:55:27.447Z,54.58
2022-08-09T20:58:34.662Z,54.57
2022-08-09T21:01:50.037Z,54.49
2022-08-09T21:05:55.076Z,54.82
2022-08-09T21:08:36.299Z,54.88
2022-08-09T21:15:12.929Z,55.42
2022-08-09T21:18:27.446Z,55.57
2022-08-09T21:21:46.161Z,55.28
2022-08-09T21:25:16.668Z,55.50
2022-08-09T21:28:33.142Z,55.71
2022-08-09T21:31:49.027Z,55.67
2022-08-09T21:34:59.297Z,56.04
2022-08-09T21:38:09.065Z,56.03
2022-08-09T21:41:16.941Z,56.02
2022-08-09T21:44:33.206Z,56.54
2022-08-09T21:47:42.649Z,56.40
2022-08-09T21:50:52.389Z,56.42
2022-08-09T21:53:59.045Z,56.33
2022-08-09T21:57:07.186Z,56.61
2022-08-09T22:00:36.225Z,56.68
2022-08-09T22:03:48.407Z,56.81
2022-08-09T22:07:10.202Z,56.85
2022-08-09T22:10:23.356Z,56.96
2022-08-09T22:13:31.369Z,57.59
2022-08-09T22:16:41.689Z,57.50
2022-08-09T22:19:58.368Z,58.67
2022-08-09T22:23:13.323Z,57.61
2022-08-09T22:26:34.010Z,57.74
2022-08-09T22:29:47.653Z,58.45
2022-08-09T22:32:56.515Z,58.06
2022-08-09T22:36:06.151Z,58.72
2022-08-09T22:39:47.193Z,58.59
2022-08-09T22:42:46.053Z,58.39
2022-08-09T22:48:13.477Z,59.02
2022-08-09T22:49:20.675Z,59.56
2022-08-09T22:52:28.213Z,59.13
2022-08-09T22:56:31.418Z,59.23
2022-08-09T22:59:58.050Z,59.58
2022-08-09T23:02:36.312Z,59.85
2022-08-09T23:05:46.065Z,60.15
2022-08-09T23:08:50.341Z,60.22
2022-08-09T23:11:59.797Z,61.20
2022-08-09T23:15:09.435Z,60.71
2022-08-09T23:18:15.652Z,60.47
2022-08-09T23:21:25.213Z,61.43
2022-08-09T23:24:34.107Z,60.39
2022-08-09T23:28:14.055Z,61.33
2022-08-09T23:31:10.299Z,61.17
2022-08-09T23:34:17.274Z,60.87
2022-08-09T23:37:25.564Z,61.00
2022-08-09T23:40:32.645Z,61.22
2022-08-09T23:43:41.558Z,61.71
2022-08-09T23:46:52.921Z,61.28
2022-08-09T23:50:03.985Z,61.66
2022-08-09T23:53:11.711Z,61.78
2022-08-09T23:56:18.590Z,62.01
